Time;durP1;ratioP1;P1;durP2;ratioP2;P2;SDS_P1;SDS_P2;PMS_P1;PMS_P2;Temp;Humidity;BMP_temperature;BMP_pressure;BME280_temperature;BME280_humidity;BME280_pressure;Samples;Min_cycle;Max_cycle;Signal;HPM_P1;HPM_P2
2022/09/02 00:00:59;;;;;;;1.50;1.40;;;14.40;99.90;;;;;;5019134;28;20037;-75
2022/09/02 00:03:34;;;;;;;2.03;1.70;;;14.40;99.90;;;;;;5018426;28;20098;-77
2022/09/02 00:06:01;;;;;;;1.73;1.45;;;14.40;99.90;;;;;;5035630;28;20045;-77
2022/09/02 00:08:30;;;;;;;3.00;2.35;;;14.30;99.90;;;;;;5035542;28;20060;-76
2022/09/02 00:10:57;;;;;;;4.10;3.10;;;14.30;99.90;;;;;;5019158;28;20076;-74
2022/09/02 00:13:23;;;;;;;4.07;3.67;;;14.20;99.90;;;;;;5035505;28;20086;-76
2022/09/02 00:15:49;;;;;;;5.60;4.93;;;14.20;99.90;;;;;;5003239;28;20045;-76
2022/09/02 00:18:17;;;;;;;5.53;5.00;;;14.20;99.90;;;;;;5035596;28;20123;-76
2022/09/02 00:20:45;;;;;;;5.43;4.82;;;14.20;99.90;;;;;;5036279;28;20041;-77
2022/09/02 00:23:12;;;;;;;4.85;4.35;;;14.10;99.90;;;;;;5035810;28;20076;-75
2022/09/02 00:25:38;;;;;;;5.78;3.88;;;14.10;99.90;;;;;;5002987;28;20037;-76
2022/09/02 00:28:05;;;;;;;5.13;3.83;;;14.10;99.90;;;;;;5019549;28;20136;-76
2022/09/02 00:30:32;;;;;;;4.07;3.22;;;14.00;99.90;;;;;;5037621;28;20451;-78
2022/09/02 00:32:58;;;;;;;3.80;3.35;;;14.00;99.90;;;;;;5037378;28;20143;-74
2022/09/02 00:35:24;;;;;;;3.53;3.20;;;14.00;99.90;;;;;;5035722;28;20103;-75
2022/09/02 00:37:51;;;;;;;3.38;2.92;;;13.90;99.90;;;;;;5035608;28;20420;-75
2022/09/02 00:40:17;;;;;;;3.13;2.83;;;13.90;99.90;;;;;;5035170;28;20163;-76
2022/09/02 00:42:42;;;;;;;2.97;2.50;;;13.90;99.90;;;;;;5019441;28;20405;-75
2022/09/02 00:45:11;;;;;;;2.83;2.50;;;13.80;99.90;;;;;;5035082;28;20040;-76
2022/09/02 00:47:37;;;;;;;4.47;2.80;;;13.80;99.90;;;;;;5018824;28;20072;-75
2022/09/02 00:50:06;;;;;;;3.25;2.80;;;13.80;99.90;;;;;;5035591;28;20076;-76
2022/09/02 00:52:41;;;;;;;3.72;3.08;;;13.70;99.90;;;;;;5018170;28;20037;-76
2022/09/02 00:55:11;;;;;;;3.60;3.30;;;13.70;99.90;;;;;;5034721;28;20037;-76
2022/09/02 00:57:43;;;;;;;5.78;3.47;;;13.70;99.90;;;;;;5035522;28;20041;-75
2022/09/02 01:00:19;;;;;;;3.78;3.47;;;13.70;99.90;;;;;;5035297;28;20098;-76
2022/09/02 01:02:53;;;;;;;3.55;3.25;;;13.70;99.90;;;;;;5018546;28;20041;-76
2022/09/02 01:05:22;;;;;;;3.20;2.90;;;13.60;99.90;;;;;;5034540;28;20037;-75
2022/09/02 01:07:49;;;;;;;4.00;3.00;;;13.60;99.90;;;;;;5034920;28;20791;-75
2022/09/02 01:10:19;;;;;;;4.07;3.35;;;13.60;99.90;;;;;;5018238;28;20037;-76
2022/09/02 01:12:45;;;;;;;4.65;3.05;;;13.50;99.90;;;;;;5019011;28;20097;-75
2022/09/02 01:15:12;;;;;;;4.95;3.13;;;13.50;99.90;;;;;;5034500;28;20398;-77
2022/09/02 01:17:43;;;;;;;3.00;2.80;;;13.50;99.90;;;;;;5034886;28;20073;-75
2022/09/02 01:20:13;;;;;;;4.05;2.70;;;13.50;99.90;;;;;;5035136;28;20084;-76
2022/09/02 01:22:44;;;;;;;3.17;2.88;;;13.50;99.90;;;;;;5034964;28;20587;-75
2022/09/02 01:25:19;;;;;;;4.13;3.05;;;13.40;99.90;;;;;;5034799;28;20048;-77
2022/09/02 01:27:45;;;;;;;3.08;2.67;;;13.40;99.90;;;;;;5034235;28;20056;-76
2022/09/02 01:30:17;;;;;;;3.40;3.08;;;13.40;99.90;;;;;;5034746;28;20550;-76
2022/09/02 01:32:43;;;;;;;6.32;2.90;;;13.30;99.90;;;;;;5018257;28;20037;-76
2022/09/02 01:35:09;;;;;;;2.90;2.70;;;13.30;99.90;;;;;;5018170;28;20101;-73
2022/09/02 01:37:37;;;;;;;2.92;2.60;;;13.30;99.90;;;;;;5017866;28;20130;-76
2022/09/02 01:40:05;;;;;;;3.05;2.67;;;13.30;99.90;;;;;;4985887;28;20072;-74
2022/09/02 01:42:31;;;;;;;3.38;2.70;;;13.20;99.90;;;;;;5017674;28;20044;-75
2022/09/02 01:44:56;;;;;;;3.08;2.50;;;13.20;99.90;;;;;;5017599;28;20390;-76
2022/09/02 01:47:24;;;;;;;2.55;2.35;;;13.20;99.90;;;;;;5034203;28;20037;-75
2022/09/02 01:49:50;;;;;;;5.50;2.40;;;13.10;99.90;;;;;;5018158;28;20049;-75
2022/09/02 01:52:18;;;;;;;2.45;2.10;;;13.10;99.90;;;;;;5033949;28;20128;-75
2022/09/02 01:54:45;;;;;;;2.60;2.15;;;13.10;99.90;;;;;;5034525;28;20396;-77
2022/09/02 01:57:11;;;;;;;2.40;2.10;;;13.00;99.90;;;;;;5017892;28;20107;-76
2022/09/02 01:59:37;;;;;;;2.20;2.00;;;13.00;99.90;;;;;;5017353;28;20045;-75
2022/09/02 02:02:03;;;;;;;2.28;2.00;;;13.00;99.90;;;;;;5034282;28;20041;-75
2022/09/02 02:04:29;;;;;;;2.95;2.28;;;13.00;99.90;;;;;;5033527;28;20041;-74
2022/09/02 02:06:55;;;;;;;2.25;1.77;;;13.00;99.90;;;;;;5034270;28;20040;-77
2022/09/02 02:09:21;;;;;;;2.53;2.13;;;12.90;99.90;;;;;;5017370;28;20076;-75
2022/09/02 02:11:48;;;;;;;2.58;1.90;;;12.90;99.90;;;;;;5017527;28;20045;-76
2022/09/02 02:14:14;;;;;;;4.07;2.10;;;12.90;99.90;;;;;;5033926;28;20047;-76
2022/09/02 02:16:40;;;;;;;2.20;2.00;;;12.90;99.90;;;;;;5016998;28;20049;-76
2022/09/02 02:19:05;;;;;;;1.92;1.73;;;12.90;99.90;;;;;;5034460;28;20056;-75
2022/09/02 02:21:32;;;;;;;2.88;1.92;;;12.90;99.90;;;;;;5018282;28;20041;-75
2022/09/02 02:24:01;;;;;;;3.80;1.80;;;12.80;99.90;;;;;;5035273;28;20416;-77
2022/09/02 02:26:28;;;;;;;2.67;1.98;;;12.80;99.90;;;;;;5036589;28;20060;-74
2022/09/02 02:28:54;;;;;;;1.88;1.77;;;12.80;99.90;;;;;;5023030;28;20045;-75
2022/09/02 02:31:20;;;;;;;2.47;1.80;;;12.80;99.90;;;;;;5040235;28;20075;-76
2022/09/02 02:33:46;;;;;;;2.00;1.75;;;12.80;99.90;;;;;;4987592;28;20041;-74
2022/09/02 02:36:12;;;;;;;4.10;1.98;;;12.70;99.90;;;;;;5035316;28;20397;-77
2022/09/02 02:38:39;;;;;;;2.08;1.88;;;12.70;99.90;;;;;;5018939;28;20052;-76
2022/09/02 02:41:05;;;;;;;2.35;1.85;;;12.70;99.90;;;;;;5038198;28;20037;-74
2022/09/02 02:43:33;;;;;;;2.28;1.90;;;12.70;99.90;;;;;;5038337;28;20082;-74
2022/09/02 02:45:59;;;;;;;2.13;1.80;;;12.70;99.90;;;;;;5035237;28;20117;-74
2022/09/02 02:48:25;;;;;;;2.50;1.98;;;12.70;99.90;;;;;;5016812;28;20080;-74
2022/09/02 02:50:50;;;;;;;2.58;1.88;;;12.60;99.90;;;;;;5033653;28;20091;-74
2022/09/02 02:53:16;;;;;;;2.70;1.80;;;12.60;99.90;;;;;;5016840;28;20052;-76
2022/09/02 02:55:43;;;;;;;2.30;2.10;;;12.60;99.90;;;;;;5032765;28;20037;-75
2022/09/02 02:58:09;;;;;;;2.55;1.77;;;12.50;99.90;;;;;;5017110;28;20043;-76
2022/09/02 03:00:35;;;;;;;2.45;1.90;;;12.50;99.90;;;;;;5033067;28;20520;-76
2022/09/02 03:03:05;;;;;;;4.15;2.15;;;12.50;99.90;;;;;;5033363;28;20036;-76
2022/09/02 03:05:32;;;;;;;2.05;1.85;;;12.40;99.90;;;;;;5032821;28;20477;-74
2022/09/02 03:07:58;;;;;;;2.80;2.10;;;12.40;99.90;;;;;;5000755;28;20033;-74
2022/09/02 03:10:25;;;;;;;2.33;2.05;;;12.40;99.90;;;;;;5016349;28;20435;-74
2022/09/02 03:12:51;;;;;;;2.63;2.13;;;12.40;99.90;;;;;;5016673;28;20041;-76
2022/09/02 03:15:19;;;;;;;3.90;2.28;;;12.40;99.90;;;;;;5032984;28;20114;-74
2022/09/02 03:17:48;;;;;;;4.38;2.13;;;12.30;99.90;;;;;;5019552;28;20048;-75
2022/09/02 03:20:16;;;;;;;3.63;2.20;;;12.30;99.90;;;;;;5037288;28;20491;-76
2022/09/02 03:22:46;;;;;;;2.22;2.03;;;12.30;99.90;;;;;;5036953;28;20076;-75
2022/09/02 03:25:14;;;;;;;2.30;2.10;;;12.30;99.90;;;;;;5038084;28;20106;-75
2022/09/02 03:27:43;;;;;;;4.43;2.47;;;12.20;99.90;;;;;;5005102;28;20486;-74
2022/09/02 03:30:12;;;;;;;2.50;2.30;;;12.20;99.90;;;;;;5038924;28;20110;-74
2022/09/02 03:32:38;;;;;;;2.30;2.10;;;12.20;99.90;;;;;;5041558;28;20048;-74
2022/09/02 03:35:07;;;;;;;2.75;2.13;;;12.20;99.90;;;;;;5009634;28;20041;-73
2022/09/02 03:37:34;;;;;;;3.75;2.42;;;12.10;99.90;;;;;;5024634;28;20124;-73
2022/09/02 03:40:05;;;;;;;3.80;2.10;;;12.10;99.90;;;;;;5038096;28;20377;-74
2022/09/02 03:42:31;;;;;;;3.90;2.25;;;12.10;99.90;;;;;;5036082;28;20076;-75
2022/09/02 03:44:57;;;;;;;2.60;2.22;;;12.10;99.90;;;;;;5004111;28;20068;-74
2022/09/02 03:47:22;;;;;;;2.30;2.10;;;12.10;99.90;;;;;;5020209;28;20040;-76
2022/09/02 03:49:49;;;;;;;2.15;1.95;;;12.10;99.90;;;;;;5037059;28;20049;-76
2022/09/02 03:52:15;;;;;;;2.30;2.10;;;12.10;99.90;;;;;;5003936;28;20049;-75
2022/09/02 03:54:41;;;;;;;2.47;2.13;;;12.10;99.90;;;;;;5035976;28;20044;-74
2022/09/02 03:57:07;;;;;;;2.90;2.03;;;12.00;99.90;;;;;;5003582;28;20041;-76
2022/09/02 03:59:33;;;;;;;2.80;2.13;;;12.00;99.90;;;;;;5019568;28;20400;-77
2022/09/02 04:02:01;;;;;;;4.03;2.00;;;12.00;99.90;;;;;;5019904;28;20102;-74
2022/09/02 04:04:28;;;;;;;2.10;1.90;;;12.00;99.90;;;;;;5019408;28;20080;-77
2022/09/02 04:06:54;;;;;;;2.30;2.10;;;12.00;99.90;;;;;;5035849;28;20055;-75
2022/09/02 04:09:21;;;;;;;2.72;2.17;;;12.00;99.90;;;;;;5019846;28;20041;-76
2022/09/02 04:11:46;;;;;;;2.60;2.35;;;12.00;99.90;;;;;;5019988;28;20055;-76
2022/09/02 04:14:13;;;;;;;2.50;1.95;;;12.00;99.90;;;;;;5003533;28;20045;-74
2022/09/02 04:16:38;;;;;;;2.78;2.30;;;11.90;99.90;;;;;;5019592;28;20045;-74
2022/09/02 04:19:04;;;;;;;2.45;2.15;;;11.90;99.90;;;;;;5003148;28;20048;-75
2022/09/02 04:21:36;;;;;;;5.38;2.33;;;11.90;99.90;;;;;;5035666;28;20538;-75
2022/09/02 04:24:06;;;;;;;3.50;2.20;;;11.90;99.90;;;;;;5019172;28;20048;-74
2022/09/02 04:26:32;;;;;;;3.20;2.30;;;11.80;99.90;;;;;;5018236;28;20045;-75
2022/09/02 04:28:58;;;;;;;2.70;2.40;;;11.80;99.90;;;;;;5035442;28;20150;-74
2022/09/02 04:31:27;;;;;;;2.38;2.00;;;11.80;99.90;;;;;;5034508;28;20104;-74
2022/09/02 04:33:53;;;;;;;3.13;2.40;;;11.80;99.90;;;;;;5002278;28;20045;-75
2022/09/02 04:36:21;;;;;;;2.20;2.00;;;11.80;99.90;;;;;;5002234;28;20043;-74
2022/09/02 04:38:46;;;;;;;2.50;2.17;;;11.80;99.90;;;;;;5035217;28;20041;-75
2022/09/02 04:41:16;;;;;;;5.22;2.35;;;11.80;99.90;;;;;;5035232;28;20071;-75
2022/09/02 04:43:42;;;;;;;3.15;2.22;;;11.80;99.90;;;;;;5034375;28;20078;-75
2022/09/02 04:46:12;;;;;;;2.65;2.22;;;11.80;99.90;;;;;;5034781;28;20037;-74
2022/09/02 04:48:38;;;;;;;4.18;2.30;;;11.80;99.90;;;;;;5034535;28;20689;-75
2022/09/02 04:51:11;;;;;;;2.70;1.88;;;11.80;99.90;;;;;;5034825;28;20646;-75
2022/09/02 04:53:37;;;;;;;2.83;2.40;;;11.80;99.90;;;;;;5034914;28;20041;-75
2022/09/02 04:56:05;;;;;;;4.05;2.25;;;11.70;99.90;;;;;;5001999;28;20369;-75
2022/09/02 04:58:31;;;;;;;3.63;2.33;;;11.70;99.90;;;;;;5017899;28;20049;-73
2022/09/02 05:00:58;;;;;;;2.70;2.30;;;11.70;99.90;;;;;;5034863;28;20041;-77
2022/09/02 05:03:25;;;;;;;3.05;2.30;;;11.70;99.90;;;;;;5034400;28;20052;-76
2022/09/02 05:05:59;;;;;;;2.40;2.10;;;11.70;99.90;;;;;;5018664;28;20106;-75
2022/09/02 05:08:24;;;;;;;3.00;2.33;;;11.80;99.90;;;;;;5034425;28;20629;-73
2022/09/02 05:10:50;;;;;;;2.45;2.25;;;11.70;99.90;;;;;;5034768;28;20319;-75
2022/09/02 05:13:16;;;;;;;3.97;2.83;;;11.70;99.90;;;;;;5001888;28;20056;-75
2022/09/02 05:15:42;;;;;;;2.42;2.22;;;11.80;99.90;;;;;;5033955;28;20132;-74
2022/09/02 05:18:08;;;;;;;2.50;2.28;;;11.80;99.90;;;;;;5034605;28;20076;-77
2022/09/02 05:20:36;;;;;;;2.55;2.03;;;11.80;99.90;;;;;;4985483;28;20378;-74
2022/09/02 05:23:02;;;;;;;2.85;2.10;;;11.80;99.90;;;;;;5001984;28;20033;-74
2022/09/02 05:25:28;;;;;;;2.30;2.10;;;11.80;99.90;;;;;;5001198;28;20136;-75
2022/09/02 05:27:53;;;;;;;3.05;2.30;;;11.80;99.90;;;;;;5017580;28;20053;-74
2022/09/02 05:30:19;;;;;;;3.00;2.10;;;11.90;99.90;;;;;;5017584;28;20049;-74
2022/09/02 05:32:46;;;;;;;3.20;2.28;;;11.90;99.90;;;;;;5017547;28;20079;-75
2022/09/02 05:35:11;;;;;;;3.00;2.25;;;11.90;99.90;;;;;;5034326;28;20124;-74
2022/09/02 05:37:37;;;;;;;2.95;2.10;;;12.00;99.90;;;;;;5017435;28;20123;-75
2022/09/02 05:40:04;;;;;;;2.45;2.10;;;12.00;99.90;;;;;;5033705;28;20452;-75
2022/09/02 05:42:30;;;;;;;4.25;2.20;;;12.10;99.90;;;;;;5017164;28;20072;-75
2022/09/02 05:44:56;;;;;;;6.15;2.47;;;12.10;99.90;;;;;;5017428;28;20041;-75
2022/09/02 05:47:23;;;;;;;7.35;2.70;;;12.20;99.90;;;;;;5001436;28;20044;-75
2022/09/02 05:49:49;;;;;;;6.07;2.55;;;12.20;99.90;;;;;;5001041;28;20060;-74
2022/09/02 05:52:16;;;;;;;2.17;1.83;;;12.30;99.90;;;;;;5033850;28;20037;-75
2022/09/02 05:54:42;;;;;;;2.33;2.00;;;12.40;99.90;;;;;;5016731;28;20041;-74
2022/09/02 05:57:12;;;;;;;3.10;2.08;;;12.40;99.90;;;;;;5016528;28;20051;-74
2022/09/02 05:59:41;;;;;;;2.40;2.13;;;12.40;99.90;;;;;;5017191;28;20045;-75
2022/09/02 06:02:12;;;;;;;2.25;2.05;;;12.50;99.90;;;;;;5033981;28;20419;-73
2022/09/02 06:04:43;;;;;;;2.17;1.73;;;12.60;99.90;;;;;;5033757;28;20044;-74
2022/09/02 06:07:10;;;;;;;4.40;2.10;;;12.70;99.90;;;;;;5017207;28;20076;-76
2022/09/02 06:09:36;;;;;;;2.60;2.00;;;12.70;99.90;;;;;;5016442;28;20480;-75
2022/09/02 06:12:02;;;;;;;2.63;2.08;;;12.80;99.90;;;;;;5017680;28;20045;-76
2022/09/02 06:14:29;;;;;;;3.25;2.10;;;12.80;99.90;;;;;;5016864;28;20037;-76
2022/09/02 06:16:56;;;;;;;4.40;2.03;;;12.90;99.90;;;;;;5000787;28;20132;-77
2022/09/02 06:19:24;;;;;;;2.63;2.10;;;13.00;99.90;;;;;;5016974;28;20041;-74
2022/09/02 06:21:50;;;;;;;2.40;2.03;;;13.10;99.90;;;;;;5016437;28;20091;-75
2022/09/02 06:24:16;;;;;;;2.50;2.20;;;13.10;99.90;;;;;;5017050;28;20507;-75
2022/09/02 06:26:42;;;;;;;3.13;2.10;;;13.20;99.90;;;;;;5000147;28;20092;-78
2022/09/02 06:29:09;;;;;;;6.45;2.20;;;13.30;99.90;;;;;;5016685;28;20049;-75
2022/09/02 06:31:36;;;;;;;3.03;2.13;;;13.30;99.90;;;;;;5016480;28;20052;-76
2022/09/02 06:34:03;;;;;;;3.10;2.20;;;13.40;99.90;;;;;;5000489;28;20481;-77
2022/09/02 06:36:29;;;;;;;2.92;2.60;;;13.40;99.90;;;;;;5016982;28;20047;-76
2022/09/02 06:38:57;;;;;;;2.47;2.28;;;13.50;99.90;;;;;;5016341;28;20167;-75
2022/09/02 06:41:27;;;;;;;2.63;2.10;;;13.60;99.90;;;;;;5016937;28;20041;-77
2022/09/02 06:43:56;;;;;;;2.42;2.17;;;13.60;99.90;;;;;;5016367;28;20044;-74
2022/09/02 06:46:25;;;;;;;3.30;2.35;;;13.70;99.90;;;;;;5016368;28;20184;-76
2022/09/02 06:48:51;;;;;;;2.40;2.20;;;13.80;99.90;;;;;;5016114;28;20048;-77
2022/09/02 06:51:23;;;;;;;2.55;2.35;;;13.90;99.90;;;;;;5015909;28;20052;-76
2022/09/02 06:53:48;;;;;;;2.20;2.00;;;14.00;99.90;;;;;;5032753;28;20497;-76
2022/09/02 06:56:14;;;;;;;3.40;2.28;;;14.00;99.90;;;;;;5032411;28;20041;-74
2022/09/02 06:58:40;;;;;;;2.42;2.10;;;14.20;99.90;;;;;;5015717;28;20141;-74
2022/09/02 07:01:06;;;;;;;2.92;2.20;;;14.20;99.90;;;;;;5016963;28;20052;-77
2022/09/02 07:06:17;;;;;;;8.85;2.42;;;14.40;99.90;;;;;;5032361;28;20072;-75
2022/09/02 07:08:43;;;;;;;5.32;2.20;;;14.60;99.90;;;;;;5032045;28;20103;-75
2022/09/02 07:11:18;;;;;;;5.72;2.08;;;14.70;99.90;;;;;;5016468;28;20053;-74
2022/09/02 07:13:44;;;;;;;2.45;2.25;;;14.80;99.90;;;;;;5032673;28;20079;-75
2022/09/02 07:16:10;;;;;;;5.85;2.33;;;14.90;99.90;;;;;;5032975;28;20076;-75
2022/09/02 07:18:36;;;;;;;8.52;2.38;;;15.00;99.90;;;;;;5015823;28;20049;-74
2022/09/02 07:21:02;;;;;;;2.20;1.88;;;15.00;99.90;;;;;;5032862;28;20040;-74
2022/09/02 07:23:27;;;;;;;3.13;2.00;;;15.10;99.90;;;;;;5032466;28;20665;-73
2022/09/02 07:25:54;;;;;;;2.55;2.15;;;15.30;99.90;;;;;;4998649;28;20041;-74
2022/09/02 07:28:21;;;;;;;4.22;2.10;;;15.40;99.90;;;;;;5016201;28;20522;-73
2022/09/02 07:30:47;;;;;;;4.40;2.08;;;15.50;99.90;;;;;;5015740;28;20124;-75
2022/09/02 07:33:14;;;;;;;2.85;2.10;;;15.60;99.90;;;;;;5032658;28;20053;-74
2022/09/02 07:35:41;;;;;;;1.95;1.75;;;15.70;99.90;;;;;;5032438;28;20029;-74
2022/09/02 07:38:08;;;;;;;2.00;1.80;;;15.80;99.90;;;;;;5032234;28;20067;-75
2022/09/02 07:40:36;;;;;;;3.75;2.08;;;16.00;99.90;;;;;;5016470;28;20045;-75
2022/09/02 07:43:04;;;;;;;4.22;1.80;;;16.00;99.90;;;;;;5017553;28;20037;-73
2022/09/02 07:45:30;;;;;;;2.90;2.10;;;16.20;99.90;;;;;;5033656;28;20119;-75
2022/09/02 07:47:56;;;;;;;2.60;2.10;;;16.10;99.90;;;;;;5034807;28;20080;-74
2022/09/02 07:50:25;;;;;;;2.35;2.00;;;16.30;99.90;;;;;;5036792;28;20075;-74
2022/09/02 07:52:56;;;;;;;3.05;2.20;;;16.50;99.90;;;;;;5038740;28;20538;-74
2022/09/02 07:55:23;;;;;;;2.03;1.90;;;16.50;99.90;;;;;;5020595;28;20033;-75
2022/09/02 07:57:50;;;;;;;2.67;1.80;;;16.60;99.90;;;;;;5033978;28;20516;-75
2022/09/02 08:00:18;;;;;;;1.88;1.70;;;16.70;99.90;;;;;;5034206;28;20052;-75
2022/09/02 08:02:44;;;;;;;2.75;1.73;;;16.90;99.90;;;;;;5021293;28;20097;-73
2022/09/02 08:05:12;;;;;;;1.67;1.58;;;16.90;99.90;;;;;;5040317;28;20062;-74
2022/09/02 08:07:38;;;;;;;3.08;1.77;;;16.90;99.90;;;;;;5039322;28;20043;-75
2022/09/02 08:10:09;;;;;;;4.25;1.73;;;17.00;99.90;;;;;;5003339;28;20135;-74
2022/09/02 08:12:35;;;;;;;3.45;1.98;;;17.10;99.90;;;;;;5036388;28;20040;-74
2022/09/02 08:15:01;;;;;;;4.10;1.90;;;17.20;99.90;;;;;;5018845;28;20048;-76
2022/09/02 08:17:27;;;;;;;3.05;1.70;;;17.20;99.90;;;;;;5019670;28;20076;-75
2022/09/02 08:19:52;;;;;;;2.50;1.95;;;17.20;99.90;;;;;;5019179;28;20520;-76
2022/09/02 08:22:18;;;;;;;4.10;1.70;;;17.40;99.90;;;;;;5034856;28;20033;-76
2022/09/02 08:24:44;;;;;;;2.28;1.70;;;17.60;99.90;;;;;;5018987;28;20048;-75
2022/09/02 08:27:09;;;;;;;3.47;1.60;;;17.70;99.90;;;;;;5022739;28;20060;-75
2022/09/02 08:29:35;;;;;;;3.88;1.73;;;17.80;99.90;;;;;;4983053;28;20051;-75
2022/09/02 08:32:01;;;;;;;3.63;1.67;;;17.80;99.90;;;;;;4982943;28;20041;-75
2022/09/02 08:34:27;;;;;;;2.92;1.60;;;17.90;99.90;;;;;;4982834;28;20046;-75
2022/09/02 08:36:53;;;;;;;2.90;1.75;;;18.00;99.90;;;;;;4982547;28;20041;-73
2022/09/02 08:39:19;;;;;;;2.53;1.60;;;18.20;99.90;;;;;;4999270;28;20046;-77
2022/09/02 08:42:06;;;;;;;2.70;1.73;;;18.30;99.90;;;;;;5014833;28;20517;-74
2022/09/02 08:44:36;;;;;;;2.00;1.80;;;18.40;99.90;;;;;;5015750;28;20385;-76
2022/09/02 08:47:05;;;;;;;3.67;2.10;;;18.50;99.90;;;;;;4999456;28;20038;-74
2022/09/02 08:49:39;;;;;;;4.30;2.10;;;18.60;99.90;;;;;;5015438;28;20088;-76
2022/09/02 08:52:05;;;;;;;4.23;2.20;;;18.80;99.90;;;;;;5015016;28;20049;-73
2022/09/02 08:54:46;;;;;;;2.35;1.92;;;18.90;99.90;;;;;;5015546;28;20041;-76
2022/09/02 08:57:12;;;;;;;3.58;1.90;;;19.00;99.90;;;;;;4998771;28;20049;-74
2022/09/02 08:59:38;;;;;;;4.43;2.00;;;18.90;99.90;;;;;;5014809;28;20034;-76
2022/09/02 09:02:20;;;;;;;2.08;1.88;;;19.00;99.90;;;;;;5014775;28;20080;-74
2022/09/02 09:05:00;;;;;;;5.72;1.92;;;19.20;99.90;;;;;;5013917;28;20041;-74
2022/09/02 09:07:52;;;;;;;3.53;1.88;;;19.40;99.90;;;;;;5015215;28;20603;-74
2022/09/02 09:10:21;;;;;;;5.60;2.05;;;19.50;99.90;;;;;;4977366;28;20544;-75
2022/09/02 09:13:22;;;;;;;1.85;1.52;;;19.60;99.90;;;;;;5014558;28;20144;-75
2022/09/02 09:15:57;;;;;;;2.65;2.03;;;19.60;99.90;;;;;;5013700;28;20123;-73
2022/09/02 09:18:36;;;;;;;2.80;1.90;;;19.60;99.90;;;;;;4998951;28;20051;-77
2022/09/02 09:21:03;;;;;;;4.50;1.80;;;19.80;99.90;;;;;;5015069;28;20976;-75
2022/09/02 09:23:37;;;;;;;4.45;2.00;;;19.90;99.90;;;;;;4998618;28;20531;-74
2022/09/02 09:26:17;;;;;;;5.32;1.80;;;19.90;99.90;;;;;;5017187;28;20049;-74
2022/09/02 09:28:46;;;;;;;1.98;1.73;;;20.10;99.90;;;;;;5034006;28;20103;-75
2022/09/02 09:31:28;;;;;;;4.22;1.85;;;20.10;99.90;;;;;;5033833;28;20118;-76
2022/09/02 09:34:06;;;;;;;2.88;1.50;;;20.30;99.90;;;;;;5033624;28;20079;-77
2022/09/02 09:36:43;;;;;;;1.73;1.50;;;20.40;99.90;;;;;;5017733;28;20358;-75
2022/09/02 09:39:21;;;;;;;2.47;1.67;;;20.50;99.90;;;;;;5033896;28;20469;-76
2022/09/02 09:41:48;;;;;;;2.10;1.60;;;20.80;99.90;;;;;;5034014;28;20063;-74
2022/09/02 09:44:37;;;;;;;2.05;1.80;;;20.90;99.90;;;;;;5034202;28;20077;-75
2022/09/02 09:47:07;;;;;;;3.08;1.67;;;20.90;99.90;;;;;;5033076;28;20178;-75
2022/09/02 09:49:32;;;;;;;2.33;1.65;;;21.30;99.90;;;;;;5034095;28;20508;-74
2022/09/02 09:51:59;;;;;;;7.47;2.38;;;21.40;99.90;;;;;;5017137;28;20045;-77
2022/09/02 09:54:26;;;;;;;1.98;1.58;;;21.50;99.90;;;;;;5017423;28;20033;-73
2022/09/02 09:56:53;;;;;;;2.03;1.50;;;21.70;99.90;;;;;;5032673;28;20072;-72
2022/09/02 09:59:46;;;;;;;3.63;1.52;;;22.10;99.90;;;;;;5033288;28;20159;-71
2022/09/02 10:02:24;;;;;;;2.58;1.60;;;22.40;99.90;;;;;;5017141;28;20037;-71
2022/09/02 10:04:52;;;;;;;2.42;1.48;;;22.50;99.90;;;;;;5033327;28;20076;-73
2022/09/02 10:07:53;;;;;;;2.55;1.92;;;22.50;99.90;;;;;;5016483;28;20041;-72
2022/09/02 10:10:21;;;;;;;2.53;1.60;;;22.30;99.90;;;;;;5016399;28;20045;-73
2022/09/02 10:12:48;;;;;;;2.33;1.50;;;22.40;99.90;;;;;;5016346;28;20127;-73
2022/09/02 10:15:21;;;;;;;1.63;1.48;;;22.80;99.90;;;;;;5016355;28;20033;-71
2022/09/02 10:17:54;;;;;;;1.98;1.50;;;22.90;99.10;;;;;;5032587;28;20076;-72
2022/09/02 10:20:34;;;;;;;2.13;1.60;;;22.80;95.40;;;;;;5016337;28;20106;-72
2022/09/02 10:23:27;;;;;;;2.20;1.60;;;23.10;99.60;;;;;;5032038;28;20115;-71
2022/09/02 10:25:52;;;;;;;3.83;1.40;;;23.40;97.50;;;;;;5008348;28;20099;-72
2022/09/02 10:28:43;;;;;;;2.10;1.60;;;23.60;96.30;;;;;;5029769;28;20394;-74
2022/09/02 10:31:16;;;;;;;2.58;1.60;;;23.00;86.10;;;;;;5005623;28;20042;-73
2022/09/02 10:34:03;;;;;;;5.05;1.73;;;23.30;90.60;;;;;;5029667;28;20045;-74
2022/09/02 10:36:51;;;;;;;4.22;1.83;;;23.20;87.90;;;;;;5028389;28;20522;-73
2022/09/02 10:39:38;;;;;;;2.47;1.33;;;22.90;66.80;;;;;;5012345;28;20095;-76
2022/09/02 10:42:33;;;;;;;2.13;1.60;;;22.90;68.50;;;;;;5012173;28;20041;-76
2022/09/02 10:45:11;;;;;;;2.65;1.40;;;23.00;71.60;;;;;;5011750;28;20048;-74
2022/09/02 10:47:39;;;;;;;2.33;1.20;;;23.10;84.40;;;;;;5012323;28;20049;-74
2022/09/02 10:50:25;;;;;;;3.13;1.73;;;23.20;72.30;;;;;;4996081;28;20418;-73
2022/09/02 10:52:54;;;;;;;2.60;1.73;;;23.50;78.70;;;;;;4996228;28;20389;-74
2022/09/02 10:55:24;;;;;;;3.08;1.92;;;23.30;59.20;;;;;;4995072;28;20045;-72
2022/09/02 10:57:58;;;;;;;2.28;1.45;;;23.20;56.30;;;;;;5012358;28;20109;-73
2022/09/02 11:00:27;;;;;;;2.00;1.58;;;23.50;52.60;;;;;;5012044;28;20041;-74
2022/09/02 11:03:19;;;;;;;1.90;1.30;;;23.50;57.10;;;;;;5012007;28;20077;-75
2022/09/02 11:05:51;;;;;;;3.40;1.60;;;23.20;38.50;;;;;;5012046;28;20041;-74
2022/09/02 11:08:24;;;;;;;4.20;1.60;;;23.50;45.60;;;;;;5012051;28;20041;-75
2022/09/02 11:11:10;;;;;;;2.45;1.30;;;23.20;31.20;;;;;;5013434;28;20045;-75
2022/09/02 11:13:38;;;;;;;2.17;1.20;;;23.40;37.10;;;;;;5031495;28;20037;-74
2022/09/02 11:16:19;;;;;;;3.15;1.48;;;23.70;34.10;;;;;;5030795;28;20045;-73
2022/09/02 11:19:05;;;;;;;1.50;1.23;;;23.20;21.90;;;;;;5031832;28;20587;-75
2022/09/02 11:22:00;;;;;;;1.80;1.40;;;23.30;25.10;;;;;;5031694;28;20123;-74
2022/09/02 11:25:07;;;;;;;2.50;1.40;;;23.30;24.30;;;;;;5015373;28;20033;-76
2022/09/02 11:27:39;;;;;;;4.43;1.50;;;23.40;39.60;;;;;;5004973;28;20049;-77
2022/09/02 11:30:20;;;;;;;1.60;1.13;;;23.60;39.30;;;;;;5031922;28;20061;-73
2022/09/02 11:32:51;;;;;;;2.15;0.90;;;23.60;7.50;;;;;;5015409;28;20095;-74
2022/09/02 11:35:26;;;;;;;2.40;1.10;;;23.60;1.00;;;;;;5015028;28;20048;-75
2022/09/02 11:38:34;;;;;;;2.85;1.17;;;23.60;1.00;;;;;;5033396;28;20227;-73
2022/09/02 11:41:17;;;;;;;1.98;1.15;;;23.70;1.00;;;;;;5035100;28;20056;-72
2022/09/02 11:44:05;;;;;;;2.42;1.30;;;23.50;1.00;;;;;;5035357;28;20045;-72
2022/09/02 11:47:01;;;;;;;2.70;1.50;;;23.50;4.20;;;;;;5035310;28;20452;-76
2022/09/02 11:50:03;;;;;;;2.33;1.30;;;23.60;12.50;;;;;;5018799;28;20824;-72
2022/09/02 11:52:57;;;;;;;1.88;1.10;;;23.80;9.90;;;;;;5035459;28;20092;-72
2022/09/02 11:55:42;;;;;;;3.33;1.20;;;23.90;1.00;;;;;;5051963;28;20383;-75
2022/09/02 11:58:08;;;;;;;1.85;1.40;;;24.00;1.00;;;;;;5035319;28;20113;-73
2022/09/02 12:00:57;;;;;;;2.10;1.20;;;24.10;11.20;;;;;;5035465;28;20048;-73
2022/09/02 12:03:28;;;;;;;1.63;1.00;;;24.10;1.00;;;;;;5035225;28;20474;-76
2022/09/02 12:06:18;;;;;;;3.60;1.40;;;23.80;1.00;;;;;;5051458;28;20175;-73
2022/09/02 12:08:43;;;;;;;5.03;1.85;;;23.70;1.00;;;;;;5055550;28;20044;-74
2022/09/02 12:11:41;;;;;;;3.22;1.30;;;23.60;1.00;;;;;;5038377;28;20070;-74
2022/09/02 12:14:29;;;;;;;2.30;1.40;;;23.90;2.30;;;;;;5030511;28;20128;-72
2022/09/02 12:17:04;;;;;;;4.00;1.20;;;23.80;1.00;;;;;;5017863;28;20052;-72
2022/09/02 12:19:44;;;;;;;1.50;1.20;;;23.80;1.00;;;;;;5047464;28;20123;-73
2022/09/02 12:22:16;;;;;;;3.83;1.73;;;23.70;1.00;;;;;;5035333;28;20095;-71
2022/09/02 12:24:52;;;;;;;3.10;1.20;;;23.70;1.00;;;;;;5026704;28;20441;-73
2022/09/02 12:27:41;;;;;;;3.38;1.40;;;23.70;1.00;;;;;;5030616;28;20051;-72
2022/09/02 12:30:11;;;;;;;1.70;1.20;;;23.90;1.00;;;;;;5034736;28;20381;-74
2022/09/02 12:32:48;;;;;;;2.78;1.35;;;23.80;1.00;;;;;;5018604;28;20053;-75
2022/09/02 12:35:36;;;;;;;2.28;1.20;;;23.80;1.00;;;;;;5017644;28;20060;-72
2022/09/02 12:38:11;;;;;;;1.70;1.35;;;23.80;1.00;;;;;;5034731;28;20041;-73
2022/09/02 12:41:11;;;;;;;1.38;1.20;;;23.70;1.00;;;;;;5018456;28;20076;-76
2022/09/02 12:43:46;;;;;;;2.17;1.50;;;23.70;1.00;;;;;;5034566;28;20130;-75
2022/09/02 12:46:18;;;;;;;1.17;1.02;;;23.70;1.00;;;;;;5017687;28;20037;-72
2022/09/02 12:49:20;;;;;;;3.03;1.20;;;23.70;1.00;;;;;;5033712;28;20045;-72
2022/09/02 12:51:55;;;;;;;1.50;1.10;;;23.60;1.00;;;;;;5018233;28;20045;-73
2022/09/02 12:54:23;;;;;;;;;;;23.90;1.00;;;;;;5018239;28;20040;-71
2022/09/02 12:56:50;;;;;;;24.77;3.33;;;23.70;1.00;;;;;;5034485;28;19923;-73
2022/09/02 12:59:31;;;;;;;16.10;2.85;;;23.80;1.00;;;;;;5034246;28;20124;-73
2022/09/02 13:02:05;;;;;;;3.60;1.20;;;24.00;1.00;;;;;;5018654;28;20609;-72
2022/09/02 13:04:33;;;;;;;5.60;1.40;;;23.90;1.00;;;;;;5033919;28;20044;-74
2022/09/02 13:07:31;;;;;;;3.20;1.33;;;24.00;1.00;;;;;;5034188;28;20367;-72
2022/09/02 13:10:00;;;;;;;12.82;2.45;;;24.10;1.00;;;;;;5035877;28;20103;-71